sensor_id;sensor_type;location;lat;lon;timestamp;P1;durP1;ratioP1;P2;durP2;ratioP2
59042;SDS011;44826;51.596;5.624;2023-10-08T00:00:43;7.32;;;2.95;;
59042;SDS011;44826;51.596;5.624;2023-10-08T00:03:14;7.97;;;2.88;;
59042;SDS011;44826;51.596;5.624;2023-10-08T00:05:41;5.43;;;2.90;;
59042;SDS011;44826;51.596;5.624;2023-10-08T00:08:07;6.78;;;3.03;;
59042;SDS011;44826;51.596;5.624;2023-10-08T00:10:36;7.40;;;3.42;;
59042;SDS011;44826;51.596;5.624;2023-10-08T00:13:05;8.00;;;3.00;;
59042;SDS011;44826;51.596;5.624;2023-10-08T00:15:33;7.68;;;3.00;;
59042;SDS011;44826;51.596;5.624;2023-10-08T00:18:00;7.93;;;3.00;;
59042;SDS011;44826;51.596;5.624;2023-10-08T00:20:26;8.73;;;2.67;;
59042;SDS011;44826;51.596;5.624;2023-10-08T00:22:53;6.45;;;2.80;;
59042;SDS011;44826;51.596;5.624;2023-10-08T00:25:21;7.88;;;3.13;;
59042;SDS011;44826;51.596;5.624;2023-10-08T00:27:46;9.88;;;2.47;;
59042;SDS011;44826;51.596;5.624;2023-10-08T00:30:16;4.82;;;2.53;;
59042;SDS011;44826;51.596;5.624;2023-10-08T00:32:43;7.03;;;2.70;;
59042;SDS011;44826;51.596;5.624;2023-10-08T00:35:09;6.60;;;2.88;;
59042;SDS011;44826;51.596;5.624;2023-10-08T00:37:39;17.40;;;4.47;;
59042;SDS011;44826;51.596;5.624;2023-10-08T00:40:05;6.07;;;2.60;;
59042;SDS011;44826;51.596;5.624;2023-10-08T00:42:37;9.05;;;2.88;;
59042;SDS011;44826;51.596;5.624;2023-10-08T00:45:05;8.13;;;2.67;;
59042;SDS011;44826;51.596;5.624;2023-10-08T00:47:32;8.90;;;2.97;;
59042;SDS011;44826;51.596;5.624;2023-10-08T00:50:05;6.22;;;2.65;;
59042;SDS011;44826;51.596;5.624;2023-10-08T00:52:34;5.82;;;2.83;;
59042;SDS011;44826;51.596;5.624;2023-10-08T00:55:10;7.10;;;2.70;;
59042;SDS011;44826;51.596;5.624;2023-10-08T00:57:45;7.68;;;3.00;;
59042;SDS011;44826;51.596;5.624;2023-10-08T01:00:14;7.50;;;2.88;;
59042;SDS011;44826;51.596;5.624;2023-10-08T01:02:46;5.90;;;2.88;;
59042;SDS011;44826;51.596;5.624;2023-10-08T01:05:17;7.05;;;2.47;;
59042;SDS011;44826;51.596;5.624;2023-10-08T01:07:46;6.28;;;2.70;;
59042;SDS011;44826;51.596;5.624;2023-10-08T01:10:16;11.55;;;2.90;;
59042;SDS011;44826;51.596;5.624;2023-10-08T01:12:45;7.25;;;2.85;;
59042;SDS011;44826;51.596;5.624;2023-10-08T01:15:30;7.75;;;2.60;;
59042;SDS011;44826;51.596;5.624;2023-10-08T01:17:56;7.72;;;2.67;;
59042;SDS011;44826;51.596;5.624;2023-10-08T01:20:29;7.93;;;2.80;;
59042;SDS011;44826;51.596;5.624;2023-10-08T01:23:08;9.27;;;2.97;;
59042;SDS011;44826;51.596;5.624;2023-10-08T01:25:38;7.60;;;2.60;;
59042;SDS011;44826;51.596;5.624;2023-10-08T01:28:07;6.35;;;2.78;;
59042;SDS011;44826;51.596;5.624;2023-10-08T01:30:34;5.82;;;2.60;;
59042;SDS011;44826;51.596;5.624;2023-10-08T01:33:06;6.38;;;2.80;;
59042;SDS011;44826;51.596;5.624;2023-10-08T01:35:36;7.68;;;3.03;;
59042;SDS011;44826;51.596;5.624;2023-10-08T01:38:01;6.07;;;2.65;;
59042;SDS011;44826;51.596;5.624;2023-10-08T01:40:28;6.85;;;2.83;;
59042;SDS011;44826;51.596;5.624;2023-10-08T01:42:55;9.88;;;3.10;;
59042;SDS011;44826;51.596;5.624;2023-10-08T01:45:30;7.07;;;2.72;;
59042;SDS011;44826;51.596;5.624;2023-10-08T01:47:57;6.97;;;2.85;;
59042;SDS011;44826;51.596;5.624;2023-10-08T01:50:22;11.43;;;3.30;;
59042;SDS011;44826;51.596;5.624;2023-10-08T01:52:51;6.47;;;3.10;;
59042;SDS011;44826;51.596;5.624;2023-10-08T01:55:16;7.15;;;2.83;;
59042;SDS011;44826;51.596;5.624;2023-10-08T01:57:47;12.52;;;3.50;;
59042;SDS011;44826;51.596;5.624;2023-10-08T02:00:13;7.95;;;3.40;;
59042;SDS011;44826;51.596;5.624;2023-10-08T02:02:49;6.70;;;2.72;;
59042;SDS011;44826;51.596;5.624;2023-10-08T02:05:15;6.30;;;3.05;;
59042;SDS011;44826;51.596;5.624;2023-10-08T02:07:43;7.45;;;3.10;;
59042;SDS011;44826;51.596;5.624;2023-10-08T02:10:12;10.52;;;3.55;;
59042;SDS011;44826;51.596;5.624;2023-10-08T02:12:39;9.50;;;3.08;;
59042;SDS011;44826;51.596;5.624;2023-10-08T02:15:06;11.10;;;3.70;;
59042;SDS011;44826;51.596;5.624;2023-10-08T02:17:31;7.90;;;3.30;;
59042;SDS011;44826;51.596;5.624;2023-10-08T02:19:57;9.82;;;3.20;;
59042;SDS011;44826;51.596;5.624;2023-10-08T02:22:22;5.78;;;2.90;;
59042;SDS011;44826;51.596;5.624;2023-10-08T02:24:48;7.63;;;2.97;;
59042;SDS011;44826;51.596;5.624;2023-10-08T02:27:15;8.23;;;3.10;;
59042;SDS011;44826;51.596;5.624;2023-10-08T02:29:41;8.10;;;3.30;;
59042;SDS011;44826;51.596;5.624;2023-10-08T02:32:07;7.95;;;3.25;;
59042;SDS011;44826;51.596;5.624;2023-10-08T02:34:33;7.50;;;3.45;;
59042;SDS011;44826;51.596;5.624;2023-10-08T02:36:58;6.38;;;3.10;;
59042;SDS011;44826;51.596;5.624;2023-10-08T02:39:24;7.47;;;3.20;;
59042;SDS011;44826;51.596;5.624;2023-10-08T02:41:54;7.70;;;3.45;;
59042;SDS011;44826;51.596;5.624;2023-10-08T02:44:24;6.57;;;2.90;;
59042;SDS011;44826;51.596;5.624;2023-10-08T02:46:50;7.18;;;3.17;;
59042;SDS011;44826;51.596;5.624;2023-10-08T02:49:17;5.78;;;2.88;;
59042;SDS011;44826;51.596;5.624;2023-10-08T02:51:45;7.65;;;3.38;;
59042;SDS011;44826;51.596;5.624;2023-10-08T02:54:11;6.78;;;3.17;;
59042;SDS011;44826;51.596;5.624;2023-10-08T02:56:48;8.48;;;3.60;;
59042;SDS011;44826;51.596;5.624;2023-10-08T02:59:23;7.68;;;3.00;;
59042;SDS011;44826;51.596;5.624;2023-10-08T03:01:49;8.10;;;3.22;;
59042;SDS011;44826;51.596;5.624;2023-10-08T03:04:17;7.65;;;3.20;;
59042;SDS011;44826;51.596;5.624;2023-10-08T03:06:44;8.10;;;3.33;;
59042;SDS011;44826;51.596;5.624;2023-10-08T03:09:16;9.00;;;3.40;;
59042;SDS011;44826;51.596;5.624;2023-10-08T03:11:46;6.47;;;3.10;;
59042;SDS011;44826;51.596;5.624;2023-10-08T03:14:13;6.50;;;3.08;;
59042;SDS011;44826;51.596;5.624;2023-10-08T03:16:40;7.70;;;3.33;;
59042;SDS011;44826;51.596;5.624;2023-10-08T03:19:06;8.80;;;3.20;;
59042;SDS011;44826;51.596;5.624;2023-10-08T03:21:31;7.20;;;3.05;;
59042;SDS011;44826;51.596;5.624;2023-10-08T03:26:37;8.82;;;3.20;;
59042;SDS011;44826;51.596;5.624;2023-10-08T03:29:04;9.10;;;3.15;;
59042;SDS011;44826;51.596;5.624;2023-10-08T03:31:39;8.73;;;3.30;;
59042;SDS011;44826;51.596;5.624;2023-10-08T03:34:11;10.90;;;3.38;;
59042;SDS011;44826;51.596;5.624;2023-10-08T03:36:40;7.93;;;3.35;;
59042;SDS011;44826;51.596;5.624;2023-10-08T03:39:12;7.20;;;2.95;;
59042;SDS011;44826;51.596;5.624;2023-10-08T03:41:39;8.50;;;3.53;;
59042;SDS011;44826;51.596;5.624;2023-10-08T03:44:06;6.75;;;3.15;;
59042;SDS011;44826;51.596;5.624;2023-10-08T03:46:38;9.80;;;3.15;;
59042;SDS011;44826;51.596;5.624;2023-10-08T03:49:05;6.75;;;3.50;;
59042;SDS011;44826;51.596;5.624;2023-10-08T03:51:41;7.78;;;3.35;;
59042;SDS011;44826;51.596;5.624;2023-10-08T03:54:07;7.72;;;2.80;;
59042;SDS011;44826;51.596;5.624;2023-10-08T03:56:41;8.27;;;3.28;;
59042;SDS011;44826;51.596;5.624;2023-10-08T03:59:11;7.30;;;3.28;;
59042;SDS011;44826;51.596;5.624;2023-10-08T04:01:54;7.85;;;3.67;;
59042;SDS011;44826;51.596;5.624;2023-10-08T04:04:24;5.97;;;3.50;;
59042;SDS011;44826;51.596;5.624;2023-10-08T04:07:09;8.48;;;3.38;;
59042;SDS011;44826;51.596;5.624;2023-10-08T04:09:51;8.32;;;3.35;;
59042;SDS011;44826;51.596;5.624;2023-10-08T04:12:30;7.07;;;3.30;;
59042;SDS011;44826;51.596;5.624;2023-10-08T04:14:59;12.25;;;3.47;;
59042;SDS011;44826;51.596;5.624;2023-10-08T04:17:25;8.18;;;3.40;;
59042;SDS011;44826;51.596;5.624;2023-10-08T04:19:50;7.93;;;3.67;;
59042;SDS011;44826;51.596;5.624;2023-10-08T04:22:16;7.50;;;3.55;;
59042;SDS011;44826;51.596;5.624;2023-10-08T04:24:43;7.25;;;3.28;;
59042;SDS011;44826;51.596;5.624;2023-10-08T04:27:09;9.63;;;4.10;;
59042;SDS011;44826;51.596;5.624;2023-10-08T04:29:34;8.75;;;3.55;;
59042;SDS011;44826;51.596;5.624;2023-10-08T04:32:02;9.68;;;3.75;;
59042;SDS011;44826;51.596;5.624;2023-10-08T04:34:36;9.77;;;3.45;;
59042;SDS011;44826;51.596;5.624;2023-10-08T04:37:02;9.55;;;3.75;;
59042;SDS011;44826;51.596;5.624;2023-10-08T04:39:29;10.07;;;4.10;;
59042;SDS011;44826;51.596;5.624;2023-10-08T04:42:01;8.57;;;3.47;;
59042;SDS011;44826;51.596;5.624;2023-10-08T04:44:38;8.52;;;3.67;;
59042;SDS011;44826;51.596;5.624;2023-10-08T04:47:04;6.40;;;3.30;;
59042;SDS011;44826;51.596;5.624;2023-10-08T04:49:32;7.65;;;3.50;;
59042;SDS011;44826;51.596;5.624;2023-10-08T04:52:04;6.63;;;3.65;;
59042;SDS011;44826;51.596;5.624;2023-10-08T04:54:39;7.63;;;3.50;;
59042;SDS011;44826;51.596;5.624;2023-10-08T04:57:07;6.35;;;3.65;;
59042;SDS011;44826;51.596;5.624;2023-10-08T04:59:40;7.25;;;3.40;;
59042;SDS011;44826;51.596;5.624;2023-10-08T05:02:06;7.78;;;3.45;;
59042;SDS011;44826;51.596;5.624;2023-10-08T05:04:48;5.97;;;3.38;;
59042;SDS011;44826;51.596;5.624;2023-10-08T05:07:17;8.77;;;3.70;;
59042;SDS011;44826;51.596;5.624;2023-10-08T05:09:47;8.32;;;3.60;;
59042;SDS011;44826;51.596;5.624;2023-10-08T05:12:28;7.57;;;3.38;;
59042;SDS011;44826;51.596;5.624;2023-10-08T05:15:02;6.65;;;3.60;;
59042;SDS011;44826;51.596;5.624;2023-10-08T05:17:54;8.48;;;3.35;;
59042;SDS011;44826;51.596;5.624;2023-10-08T05:20:23;7.30;;;4.00;;
59042;SDS011;44826;51.596;5.624;2023-10-08T05:23:11;7.95;;;3.47;;
59042;SDS011;44826;51.596;5.624;2023-10-08T05:25:53;6.32;;;3.45;;
59042;SDS011;44826;51.596;5.624;2023-10-08T05:28:31;7.78;;;4.10;;
59042;SDS011;44826;51.596;5.624;2023-10-08T05:31:10;10.05;;;3.90;;
59042;SDS011;44826;51.596;5.624;2023-10-08T05:33:38;6.38;;;3.45;;
59042;SDS011;44826;51.596;5.624;2023-10-08T05:36:23;8.65;;;3.70;;
59042;SDS011;44826;51.596;5.624;2023-10-08T05:39:07;9.32;;;3.83;;
59042;SDS011;44826;51.596;5.624;2023-10-08T05:41:51;8.40;;;3.58;;
59042;SDS011;44826;51.596;5.624;2023-10-08T05:44:17;8.52;;;3.92;;
59042;SDS011;44826;51.596;5.624;2023-10-08T05:46:43;11.52;;;4.22;;
59042;SDS011;44826;51.596;5.624;2023-10-08T05:49:31;27.80;;;4.70;;
59042;SDS011;44826;51.596;5.624;2023-10-08T05:51:57;10.05;;;4.22;;
59042;SDS011;44826;51.596;5.624;2023-10-08T05:54:28;10.05;;;3.95;;
59042;SDS011;44826;51.596;5.624;2023-10-08T05:56:54;7.70;;;3.70;;
59042;SDS011;44826;51.596;5.624;2023-10-08T05:59:40;8.38;;;3.58;;
59042;SDS011;44826;51.596;5.624;2023-10-08T06:02:28;6.32;;;3.70;;
59042;SDS011;44826;51.596;5.624;2023-10-08T06:04:58;8.75;;;3.92;;
59042;SDS011;44826;51.596;5.624;2023-10-08T06:07:48;10.15;;;3.70;;
59042;SDS011;44826;51.596;5.624;2023-10-08T06:10:17;9.77;;;3.65;;
59042;SDS011;44826;51.596;5.624;2023-10-08T06:12:59;8.80;;;3.80;;
59042;SDS011;44826;51.596;5.624;2023-10-08T06:18:20;9.32;;;3.90;;
59042;SDS011;44826;51.596;5.624;2023-10-08T06:20:53;7.20;;;3.63;;
59042;SDS011;44826;51.596;5.624;2023-10-08T06:23:20;11.40;;;3.90;;
59042;SDS011;44826;51.596;5.624;2023-10-08T06:25:48;10.50;;;3.97;;
59042;SDS011;44826;51.596;5.624;2023-10-08T06:28:31;8.65;;;3.90;;
59042;SDS011;44826;51.596;5.624;2023-10-08T06:30:59;7.43;;;3.50;;
59042;SDS011;44826;51.596;5.624;2023-10-08T06:33:26;7.15;;;3.67;;
59042;SDS011;44826;51.596;5.624;2023-10-08T06:35:55;8.52;;;3.92;;
59042;SDS011;44826;51.596;5.624;2023-10-08T06:38:33;9.13;;;3.92;;
59042;SDS011;44826;51.596;5.624;2023-10-08T06:40:59;9.48;;;3.80;;
59042;SDS011;44826;51.596;5.624;2023-10-08T06:43:25;7.43;;;3.50;;
59042;SDS011;44826;51.596;5.624;2023-10-08T06:45:52;10.65;;;3.88;;
59042;SDS011;44826;51.596;5.624;2023-10-08T06:48:21;7.50;;;3.72;;
59042;SDS011;44826;51.596;5.624;2023-10-08T06:50:48;9.07;;;4.00;;
59042;SDS011;44826;51.596;5.624;2023-10-08T06:53:15;7.40;;;3.63;;
59042;SDS011;44826;51.596;5.624;2023-10-08T06:55:43;8.98;;;3.90;;
59042;SDS011;44826;51.596;5.624;2023-10-08T06:58:09;10.15;;;3.58;;
59042;SDS011;44826;51.596;5.624;2023-10-08T07:00:36;9.40;;;3.88;;
59042;SDS011;44826;51.596;5.624;2023-10-08T07:03:08;12.93;;;4.00;;
59042;SDS011;44826;51.596;5.624;2023-10-08T07:05:36;16.15;;;4.28;;
59042;SDS011;44826;51.596;5.624;2023-10-08T07:08:05;15.98;;;4.40;;
59042;SDS011;44826;51.596;5.624;2023-10-08T07:10:32;13.02;;;4.25;;
59042;SDS011;44826;51.596;5.624;2023-10-08T07:12:59;8.48;;;3.70;;
59042;SDS011;44826;51.596;5.624;2023-10-08T07:15:25;11.07;;;4.25;;
59042;SDS011;44826;51.596;5.624;2023-10-08T07:17:51;13.23;;;4.32;;
59042;SDS011;44826;51.596;5.624;2023-10-08T07:20:16;9.43;;;4.45;;
59042;SDS011;44826;51.596;5.624;2023-10-08T07:22:46;10.80;;;4.28;;
59042;SDS011;44826;51.596;5.624;2023-10-08T07:25:19;13.48;;;4.75;;
59042;SDS011;44826;51.596;5.624;2023-10-08T07:27:47;11.63;;;4.60;;
59042;SDS011;44826;51.596;5.624;2023-10-08T07:30:12;9.38;;;4.40;;
59042;SDS011;44826;51.596;5.624;2023-10-08T07:32:38;11.45;;;4.80;;
59042;SDS011;44826;51.596;5.624;2023-10-08T07:35:04;12.55;;;4.85;;
59042;SDS011;44826;51.596;5.624;2023-10-08T07:37:45;8.23;;;4.53;;
59042;SDS011;44826;51.596;5.624;2023-10-08T07:40:12;7.53;;;4.32;;
59042;SDS011;44826;51.596;5.624;2023-10-08T07:42:40;9.15;;;4.95;;
59042;SDS011;44826;51.596;5.624;2023-10-08T07:45:06;9.93;;;5.00;;
59042;SDS011;44826;51.596;5.624;2023-10-08T07:47:31;9.25;;;4.88;;
59042;SDS011;44826;51.596;5.624;2023-10-08T07:49:56;10.75;;;4.93;;
59042;SDS011;44826;51.596;5.624;2023-10-08T07:52:23;8.65;;;4.88;;
59042;SDS011;44826;51.596;5.624;2023-10-08T07:54:49;9.98;;;4.95;;
59042;SDS011;44826;51.596;5.624;2023-10-08T07:57:14;10.93;;;5.03;;
59042;SDS011;44826;51.596;5.624;2023-10-08T07:59:44;9.77;;;5.18;;
59042;SDS011;44826;51.596;5.624;2023-10-08T08:02:13;10.45;;;5.18;;
59042;SDS011;44826;51.596;5.624;2023-10-08T08:04:40;12.25;;;5.45;;
59042;SDS011;44826;51.596;5.624;2023-10-08T08:07:15;9.27;;;4.97;;
59042;SDS011;44826;51.596;5.624;2023-10-08T08:09:45;11.95;;;5.22;;
59042;SDS011;44826;51.596;5.624;2023-10-08T08:12:17;10.43;;;5.60;;
59042;SDS011;44826;51.596;5.624;2023-10-08T08:14:44;11.30;;;5.38;;
59042;SDS011;44826;51.596;5.624;2023-10-08T08:17:10;10.98;;;5.60;;
59042;SDS011;44826;51.596;5.624;2023-10-08T08:19:41;9.98;;;5.18;;
59042;SDS011;44826;51.596;5.624;2023-10-08T08:22:09;8.88;;;5.20;;
59042;SDS011;44826;51.596;5.624;2023-10-08T08:24:40;13.07;;;5.60;;
59042;SDS011;44826;51.596;5.624;2023-10-08T08:27:09;13.32;;;5.93;;
59042;SDS011;44826;51.596;5.624;2023-10-08T08:29:56;13.80;;;5.93;;
59042;SDS011;44826;51.596;5.624;2023-10-08T08:32:26;13.02;;;6.05;;
59042;SDS011;44826;51.596;5.624;2023-10-08T08:34:53;17.98;;;6.35;;
59042;SDS011;44826;51.596;5.624;2023-10-08T08:37:19;14.27;;;6.20;;
59042;SDS011;44826;51.596;5.624;2023-10-08T08:39:47;13.70;;;5.60;;
59042;SDS011;44826;51.596;5.624;2023-10-08T08:42:13;14.52;;;6.32;;
59042;SDS011;44826;51.596;5.624;2023-10-08T08:44:41;14.00;;;6.20;;
59042;SDS011;44826;51.596;5.624;2023-10-08T08:47:12;14.35;;;5.75;;
59042;SDS011;44826;51.596;5.624;2023-10-08T08:49:42;12.18;;;5.70;;
59042;SDS011;44826;51.596;5.624;2023-10-08T08:52:09;14.35;;;5.50;;
59042;SDS011;44826;51.596;5.624;2023-10-08T08:54:34;13.88;;;6.18;;
59042;SDS011;44826;51.596;5.624;2023-10-08T08:57:02;17.15;;;5.78;;
59042;SDS011;44826;51.596;5.624;2023-10-08T08:59:37;14.80;;;5.60;;
59042;SDS011;44826;51.596;5.624;2023-10-08T09:02:04;16.50;;;5.55;;
59042;SDS011;44826;51.596;5.624;2023-10-08T09:04:32;14.30;;;5.25;;
59042;SDS011;44826;51.596;5.624;2023-10-08T09:07:01;13.10;;;5.35;;
59042;SDS011;44826;51.596;5.624;2023-10-08T09:09:36;12.07;;;5.25;;
59042;SDS011;44826;51.596;5.624;2023-10-08T09:12:09;13.00;;;5.03;;
59042;SDS011;44826;51.596;5.624;2023-10-08T09:14:35;12.38;;;5.13;;
59042;SDS011;44826;51.596;5.624;2023-10-08T09:17:01;15.20;;;5.18;;
59042;SDS011;44826;51.596;5.624;2023-10-08T09:19:29;14.07;;;5.35;;
59042;SDS011;44826;51.596;5.624;2023-10-08T09:22:01;11.18;;;5.13;;
59042;SDS011;44826;51.596;5.624;2023-10-08T09:24:32;14.70;;;5.10;;
59042;SDS011;44826;51.596;5.624;2023-10-08T09:26:59;12.68;;;5.25;;
59042;SDS011;44826;51.596;5.624;2023-10-08T09:29:25;11.20;;;5.28;;
59042;SDS011;44826;51.596;5.624;2023-10-08T09:31:58;12.23;;;4.95;;
59042;SDS011;44826;51.596;5.624;2023-10-08T09:34:30;12.40;;;5.05;;
59042;SDS011;44826;51.596;5.624;2023-10-08T09:39:22;8.23;;;4.50;;
59042;SDS011;44826;51.596;5.624;2023-10-08T09:41:49;10.00;;;5.10;;
59042;SDS011;44826;51.596;5.624;2023-10-08T09:44:18;11.55;;;5.10;;
59042;SDS011;44826;51.596;5.624;2023-10-08T09:46:44;11.93;;;5.50;;
59042;SDS011;44826;51.596;5.624;2023-10-08T09:49:16;10.25;;;4.95;;
59042;SDS011;44826;51.596;5.624;2023-10-08T09:51:44;10.32;;;4.82;;
59042;SDS011;44826;51.596;5.624;2023-10-08T09:54:11;8.32;;;4.65;;
59042;SDS011;44826;51.596;5.624;2023-10-08T09:56:43;9.13;;;4.70;;
59042;SDS011;44826;51.596;5.624;2023-10-08T09:59:09;8.52;;;4.65;;
59042;SDS011;44826;51.596;5.624;2023-10-08T10:01:38;9.07;;;5.30;;
59042;SDS011;44826;51.596;5.624;2023-10-08T10:04:08;8.57;;;4.57;;
59042;SDS011;44826;51.596;5.624;2023-10-08T10:06:35;9.65;;;4.45;;
59042;SDS011;44826;51.596;5.624;2023-10-08T10:09:01;8.40;;;4.15;;
59042;SDS011;44826;51.596;5.624;2023-10-08T10:11:27;8.18;;;4.60;;
59042;SDS011;44826;51.596;5.624;2023-10-08T10:13:57;6.43;;;3.65;;
59042;SDS011;44826;51.596;5.624;2023-10-08T10:16:26;8.20;;;3.65;;
59042;SDS011;44826;51.596;5.624;2023-10-08T10:18:55;7.63;;;3.60;;
59042;SDS011;44826;51.596;5.624;2023-10-08T10:21:26;7.47;;;3.63;;
59042;SDS011;44826;51.596;5.624;2023-10-08T10:23:54;8.07;;;3.60;;
59042;SDS011;44826;51.596;5.624;2023-10-08T10:26:22;7.10;;;3.70;;
59042;SDS011;44826;51.596;5.624;2023-10-08T10:31:34;7.10;;;3.47;;
59042;SDS011;44826;51.596;5.624;2023-10-08T10:34:05;7.40;;;3.30;;
59042;SDS011;44826;51.596;5.624;2023-10-08T10:36:33;7.95;;;3.30;;
59042;SDS011;44826;51.596;5.624;2023-10-08T10:38:59;8.88;;;3.45;;
59042;SDS011;44826;51.596;5.624;2023-10-08T10:41:24;5.68;;;3.10;;
59042;SDS011;44826;51.596;5.624;2023-10-08T10:43:49;8.05;;;3.38;;
59042;SDS011;44826;51.596;5.624;2023-10-08T10:46:18;6.47;;;3.10;;
59042;SDS011;44826;51.596;5.624;2023-10-08T10:48:54;7.03;;;3.20;;
59042;SDS011;44826;51.596;5.624;2023-10-08T10:51:32;7.38;;;3.25;;
59042;SDS011;44826;51.596;5.624;2023-10-08T10:53:59;5.85;;;3.47;;
59042;SDS011;44826;51.596;5.624;2023-10-08T10:56:34;5.20;;;3.15;;
59042;SDS011;44826;51.596;5.624;2023-10-08T10:59:06;6.60;;;3.17;;
59042;SDS011;44826;51.596;5.624;2023-10-08T11:01:48;8.38;;;3.20;;
59042;SDS011;44826;51.596;5.624;2023-10-08T11:04:18;6.13;;;3.05;;
59042;SDS011;44826;51.596;5.624;2023-10-08T11:06:46;7.50;;;3.30;;
59042;SDS011;44826;51.596;5.624;2023-10-08T11:09:15;6.65;;;3.28;;
59042;SDS011;44826;51.596;5.624;2023-10-08T11:11:44;5.20;;;2.72;;
59042;SDS011;44826;51.596;5.624;2023-10-08T11:14:13;7.25;;;3.30;;
59042;SDS011;44826;51.596;5.624;2023-10-08T11:16:44;6.50;;;2.83;;
59042;SDS011;44826;51.596;5.624;2023-10-08T11:19:10;5.57;;;2.92;;
59042;SDS011;44826;51.596;5.624;2023-10-08T11:21:51;6.85;;;3.13;;
59042;SDS011;44826;51.596;5.624;2023-10-08T11:24:28;6.07;;;2.88;;
59042;SDS011;44826;51.596;5.624;2023-10-08T11:27:00;5.72;;;2.72;;
59042;SDS011;44826;51.596;5.624;2023-10-08T11:29:47;6.22;;;2.95;;
59042;SDS011;44826;51.596;5.624;2023-10-08T11:32:14;8.85;;;3.45;;
59042;SDS011;44826;51.596;5.624;2023-10-08T11:34:47;7.00;;;3.17;;
59042;SDS011;44826;51.596;5.624;2023-10-08T11:40:01;7.18;;;3.35;;
59042;SDS011;44826;51.596;5.624;2023-10-08T11:42:42;6.75;;;3.80;;
59042;SDS011;44826;51.596;5.624;2023-10-08T11:45:09;8.13;;;3.50;;
59042;SDS011;44826;51.596;5.624;2023-10-08T11:47:48;6.25;;;3.75;;
59042;SDS011;44826;51.596;5.624;2023-10-08T11:50:14;5.88;;;3.67;;
59042;SDS011;44826;51.596;5.624;2023-10-08T11:52:45;8.65;;;4.07;;
59042;SDS011;44826;51.596;5.624;2023-10-08T11:55:11;5.78;;;3.88;;
59042;SDS011;44826;51.596;5.624;2023-10-08T11:57:56;6.53;;;3.97;;
59042;SDS011;44826;51.596;5.624;2023-10-08T12:00:22;8.77;;;4.18;;
59042;SDS011;44826;51.596;5.624;2023-10-08T12:02:50;6.55;;;3.63;;
59042;SDS011;44826;51.596;5.624;2023-10-08T12:05:19;6.65;;;4.15;;
59042;SDS011;44826;51.596;5.624;2023-10-08T12:07:52;4.47;;;3.33;;
59042;SDS011;44826;51.596;5.624;2023-10-08T12:10:18;5.65;;;3.58;;
59042;SDS011;44826;51.596;5.624;2023-10-08T12:12:50;6.70;;;3.45;;
59042;SDS011;44826;51.596;5.624;2023-10-08T12:15:17;5.35;;;3.17;;
59042;SDS011;44826;51.596;5.624;2023-10-08T12:17:48;5.57;;;3.05;;
59042;SDS011;44826;51.596;5.624;2023-10-08T12:20:32;7.53;;;2.72;;
59042;SDS011;44826;51.596;5.624;2023-10-08T12:22:59;6.55;;;2.75;;
59042;SDS011;44826;51.596;5.624;2023-10-08T12:25:24;5.05;;;2.83;;
59042;SDS011;44826;51.596;5.624;2023-10-08T12:27:50;6.07;;;2.72;;
59042;SDS011;44826;51.596;5.624;2023-10-08T12:30:15;6.32;;;2.80;;
59042;SDS011;44826;51.596;5.624;2023-10-08T12:32:40;6.68;;;2.80;;
59042;SDS011;44826;51.596;5.624;2023-10-08T12:35:08;5.82;;;2.90;;
59042;SDS011;44826;51.596;5.624;2023-10-08T12:37:38;5.50;;;2.72;;
59042;SDS011;44826;51.596;5.624;2023-10-08T12:40:04;4.32;;;2.78;;
59042;SDS011;44826;51.596;5.624;2023-10-08T12:42:37;6.05;;;3.00;;
59042;SDS011;44826;51.596;5.624;2023-10-08T12:45:09;6.55;;;2.88;;
59042;SDS011;44826;51.596;5.624;2023-10-08T12:47:37;6.22;;;2.80;;
59042;SDS011;44826;51.596;5.624;2023-10-08T12:50:03;5.57;;;3.17;;
59042;SDS011;44826;51.596;5.624;2023-10-08T12:52:32;6.80;;;3.15;;
59042;SDS011;44826;51.596;5.624;2023-10-08T12:55:00;7.00;;;3.40;;
59042;SDS011;44826;51.596;5.624;2023-10-08T12:57:29;5.90;;;3.20;;
59042;SDS011;44826;51.596;5.624;2023-10-08T12:59:58;6.10;;;3.30;;
59042;SDS011;44826;51.596;5.624;2023-10-08T13:02:24;6.70;;;2.88;;
59042;SDS011;44826;51.596;5.624;2023-10-08T13:04:53;8.38;;;3.70;;
59042;SDS011;44826;51.596;5.624;2023-10-08T13:07:20;8.45;;;3.33;;
59042;SDS011;44826;51.596;5.624;2023-10-08T13:09:46;6.05;;;3.55;;
59042;SDS011;44826;51.596;5.624;2023-10-08T13:12:15;6.05;;;3.63;;
59042;SDS011;44826;51.596;5.624;2023-10-08T13:14:40;6.30;;;3.33;;
59042;SDS011;44826;51.596;5.624;2023-10-08T13:17:06;7.15;;;3.63;;
59042;SDS011;44826;51.596;5.624;2023-10-08T13:19:35;8.13;;;4.25;;
59042;SDS011;44826;51.596;5.624;2023-10-08T13:22:01;7.22;;;3.97;;
59042;SDS011;44826;51.596;5.624;2023-10-08T13:24:31;8.90;;;3.85;;
59042;SDS011;44826;51.596;5.624;2023-10-08T13:26:57;9.65;;;4.22;;
59042;SDS011;44826;51.596;5.624;2023-10-08T13:29:23;9.15;;;4.47;;
59042;SDS011;44826;51.596;5.624;2023-10-08T13:31:51;10.15;;;4.55;;
59042;SDS011;44826;51.596;5.624;2023-10-08T13:34:19;9.82;;;4.50;;
59042;SDS011;44826;51.596;5.624;2023-10-08T13:36:44;7.97;;;4.40;;
59042;SDS011;44826;51.596;5.624;2023-10-08T13:39:12;10.70;;;4.72;;
59042;SDS011;44826;51.596;5.624;2023-10-08T13:41:43;8.48;;;4.22;;
59042;SDS011;44826;51.596;5.624;2023-10-08T13:44:12;13.13;;;5.18;;
59042;SDS011;44826;51.596;5.624;2023-10-08T13:46:38;9.70;;;4.88;;
59042;SDS011;44826;51.596;5.624;2023-10-08T13:49:07;8.25;;;5.00;;
59042;SDS011;44826;51.596;5.624;2023-10-08T13:51:35;10.88;;;4.95;;
59042;SDS011;44826;51.596;5.624;2023-10-08T13:54:03;10.48;;;5.40;;
59042;SDS011;44826;51.596;5.624;2023-10-08T13:56:31;11.88;;;5.53;;
59042;SDS011;44826;51.596;5.624;2023-10-08T13:59:01;12.90;;;5.38;;
59042;SDS011;44826;51.596;5.624;2023-10-08T14:01:36;9.05;;;5.13;;
59042;SDS011;44826;51.596;5.624;2023-10-08T14:04:03;10.85;;;5.47;;
59042;SDS011;44826;51.596;5.624;2023-10-08T14:06:32;8.43;;;5.38;;
59042;SDS011;44826;51.596;5.624;2023-10-08T14:08:59;12.20;;;5.68;;
59042;SDS011;44826;51.596;5.624;2023-10-08T14:11:25;11.73;;;5.45;;
59042;SDS011;44826;51.596;5.624;2023-10-08T14:13:55;11.93;;;5.10;;
59042;SDS011;44826;51.596;5.624;2023-10-08T14:16:27;10.57;;;5.75;;
59042;SDS011;44826;51.596;5.624;2023-10-08T14:18:54;9.50;;;6.13;;
59042;SDS011;44826;51.596;5.624;2023-10-08T14:21:20;13.63;;;6.18;;
59042;SDS011;44826;51.596;5.624;2023-10-08T14:23:55;12.30;;;5.82;;
59042;SDS011;44826;51.596;5.624;2023-10-08T14:26:21;11.02;;;6.35;;
59042;SDS011;44826;51.596;5.624;2023-10-08T14:28:48;11.70;;;6.38;;
59042;SDS011;44826;51.596;5.624;2023-10-08T14:31:23;11.13;;;6.68;;
59042;SDS011;44826;51.596;5.624;2023-10-08T14:33:51;12.30;;;7.30;;
59042;SDS011;44826;51.596;5.624;2023-10-08T14:36:36;14.13;;;7.47;;
59042;SDS011;44826;51.596;5.624;2023-10-08T14:39:20;14.77;;;7.25;;
59042;SDS011;44826;51.596;5.624;2023-10-08T14:42:03;13.48;;;7.43;;
59042;SDS011;44826;51.596;5.624;2023-10-08T14:44:47;12.55;;;7.47;;
59042;SDS011;44826;51.596;5.624;2023-10-08T14:47:15;11.00;;;7.45;;
59042;SDS011;44826;51.596;5.624;2023-10-08T14:49:41;15.52;;;7.63;;
59042;SDS011;44826;51.596;5.624;2023-10-08T14:52:08;14.88;;;8.32;;
59042;SDS011;44826;51.596;5.624;2023-10-08T14:54:33;13.73;;;7.72;;
59042;SDS011;44826;51.596;5.624;2023-10-08T14:56:58;13.43;;;8.57;;
59042;SDS011;44826;51.596;5.624;2023-10-08T14:59:24;14.27;;;8.07;;
59042;SDS011;44826;51.596;5.624;2023-10-08T15:01:53;15.88;;;7.40;;
59042;SDS011;44826;51.596;5.624;2023-10-08T15:04:18;16.30;;;8.02;;
59042;SDS011;44826;51.596;5.624;2023-10-08T15:06:44;13.38;;;7.18;;
59042;SDS011;44826;51.596;5.624;2023-10-08T15:09:09;14.57;;;7.13;;
59042;SDS011;44826;51.596;5.624;2023-10-08T15:11:34;11.98;;;6.78;;